Atmospheric History
12/06/2017 18:13  to  12/7/2017 18:13
Change End Date:
To complete the export process:
1) Select all of the data below
2) Copy the data to the clipboard
3) Open a word processor such as Notepad
4) Paste the data into the word processor
5) Save the file

Date/Time (MDT), AirTemp, RH, Dewpoint ,AvgWindSpeed, GustWindSpeed, WindDirection, PrecipType, PrecipIntensity, PrecipAccumulation, PrecipRate
12/07/2017 18:09, 20, 69, 12 ,5, 7, S, None, None, ,  
12/07/2017 18:07, 21, 68, 12 ,5, 7, SW, None, None, ,  
12/07/2017 17:59, 22, 67, 12 ,7, 9, S, None, None, ,  
12/07/2017 17:52, 22, 66, 12 ,7, 8, S, None, None, ,  
12/07/2017 17:49, 21, 66, 12 ,7, 8, S, None, None, ,  
12/07/2017 17:39, 19, 67, 10 ,4, 7, SE, None, None, ,  
12/07/2017 17:37, 19, 65, 9 ,6, 7, S, None, None, ,  
12/07/2017 17:29, 22, 62, 11 ,4, 6, S, None, None, ,  
12/07/2017 17:22, 24, 61, 13 ,4, 5, S, None, None, ,  
12/07/2017 17:19, 24, 63, 13 ,4, 6, S, None, None, ,  
12/07/2017 17:09, 25, 61, 14 ,5, 7, S, None, None, ,  
12/07/2017 17:07, 25, 60, 13 ,4, 6, S, None, None, ,  
12/07/2017 16:58, 24, 61, 13 ,6, 7, S, None, None, ,  
12/07/2017 16:52, 25, 61, 13 ,6, 7, S, None, None, ,  
12/07/2017 16:48, 25, 59, 13 ,5, 8, S, None, None, ,  
12/07/2017 16:38, 29, 49, 13 ,5, 6, S, None, None, ,  
12/07/2017 16:37, 30, 48, 13 ,5, 6, S, None, None, ,  
12/07/2017 16:28, 29, 52, 14 ,4, 5, S, None, None, ,  
12/07/2017 16:22, 30, 51, 14 ,3, 4, SE, None, None, ,  
12/07/2017 16:18, 30, 50, 14 ,2, 6, SE, None, None, ,  
12/07/2017 16:08, 31, 48, 14 ,6, 7, S, None, None, ,  
12/07/2017 16:07, 31, 49, 14 ,6, 7, S, None, None, ,  
12/07/2017 15:58, 30, 49, 14 ,6, 9, SW, None, None, ,  
12/07/2017 15:52, 32, 46, 14 ,6, 9, S, None, None, ,  
12/07/2017 15:48, 32, 47, 14 ,7, 9, S, None, None, ,  
12/07/2017 15:38, 33, 45, 14 ,9, 9, SW, None, None, ,  
12/07/2017 15:37, 33, 43, 14 ,8, 9, SW, None, None, ,  
12/07/2017 15:28, 34, 44, 15 ,6, 7, S, None, None, ,  
12/07/2017 15:22, 33, 49, 16 ,6, 9, S, None, None, ,  
12/07/2017 15:18, 35, 41, 14 ,8, 9, S, None, None, ,  
12/07/2017 15:08, 34, 46, 15 ,7, 11, S, None, None, ,  
12/07/2017 15:07, 34, 45, 15 ,7, 11, S, None, None, ,  
12/07/2017 14:58, 35, 43, 15 ,10, 12, S, None, None, ,  
12/07/2017 14:52, 34, 44, 15 ,10, 12, S, None, None, ,  
12/07/2017 14:48, 35, 45, 15 ,7, 12, S, None, None, ,  
12/07/2017 14:38, 35, 41, 14 ,7, 11, S, None, None, ,  
12/07/2017 14:37, 35, 41, 14 ,8, 11, S, None, None, ,  
12/07/2017 14:28, 36, 37, 12 ,7, 10, S, None, None, ,  
12/07/2017 14:22, 35, 41, 14 ,9, 12, S, None, None, ,  
12/07/2017 14:18, 35, 38, 13 ,7, 12, S, None, None, ,  
12/07/2017 14:08, 35, 44, 15 ,10, 11, S, None, None, ,  
12/07/2017 14:07, 35, 43, 15 ,9, 11, S, None, None, ,  
12/07/2017 13:58, 35, 40, 14 ,9, 10, S, None, None, ,  
12/07/2017 13:52, 35, 38, 12 ,9, 10, SE, None, None, ,  
12/07/2017 13:48, 35, 40, 13 ,8, 9, S, None, None, ,  
12/07/2017 13:37, 35, 40, 14 ,7, 9, S, None, None, ,  
12/07/2017 13:37, 35, 41, 14 ,7, 9, S, None, None, ,  
12/07/2017 13:27, 35, 39, 13 ,6, 7, SE, None, None, ,  
12/07/2017 13:22, 35, 40, 13 ,6, 7, SE, None, None, ,  
12/07/2017 13:17, 35, 36, 11 ,4, 6, SE, None, None, ,  
12/07/2017 13:07, 35, 36, 12 ,3, 6, SE, None, None, ,  
12/07/2017 13:07, 35, 36, 11 ,3, 6, SE, None, None, ,  
12/07/2017 12:57, 35, 38, 12 ,6, 7, S, None, None, ,  
12/07/2017 12:52, 34, 38, 11 ,6, 7, SE, None, None, ,  
12/07/2017 12:47, 35, 39, 12 ,4, 6, SE, None, None, ,  
12/07/2017 12:37, 32, 42, 12 ,3, 6, S, None, None, ,  
12/07/2017 12:37, 32, 42, 12 ,3, 6, S, None, None, ,  
12/07/2017 12:27, 29, 50, 13 ,2, 4, S, None, None, ,  
12/07/2017 12:22, 28, 52, 13 ,4, 4, SE, None, None, ,  
12/07/2017 12:17, 26, 56, 13 ,3, 4, S, None, None, ,  
12/07/2017 12:07, 22, 61, 11 ,2, 4, S, None, None, ,  
12/07/2017 12:07, 22, 61, 11 ,2, 4, S, None, None, ,  
12/07/2017 11:57, 20, 63, 10 ,1, 3, SE, None, None, ,  
12/07/2017 11:52, 20, 64, 10 ,1, 3, SE, None, None, ,  
12/07/2017 11:47, 19, 62, 9 ,0, 3, NW, None, None, ,  
12/07/2017 11:37, 22, 65, 12 ,2, 6, S, None, None, ,  
12/07/2017 11:37, 22, 65, 12 ,2, 6, S, None, None, ,  
12/07/2017 11:27, 19, 66, 10 ,1, 6, E, None, None, ,  
12/07/2017 11:22, 19, 64, 9 ,1, 6, SE, None, None, ,  
12/07/2017 11:17, 19, 65, 9 ,5, 6, S, None, None, ,  
12/07/2017 11:07, 15, 64, 5 ,1, 3, S, None, None, ,  
12/07/2017 11:07, 15, 64, 5 ,1, 3, SW, None, None, ,  
12/07/2017 10:57, 15, 63, 5 ,0, 1, W, None, None, ,  
12/07/2017 10:52, 13, 63, 3 ,0, 2, NW, None, None, ,  
12/07/2017 10:47, 15, 62, 4 ,0, 2, NW, None, None, ,  
12/07/2017 10:37, 13, 63, 2 ,0, 1, NE, None, None, ,  
12/07/2017 10:37, 12, 62, 2 ,0, 1, NE, None, None, ,  
12/07/2017 10:27, 14, 67, 5 ,0, 1, SE, None, None, ,  
12/07/2017 10:22, 12, 70, 4 ,0, 1, N, None, None, ,  
12/07/2017 10:16, 11, 73, 4 ,0, 1, W, None, None, ,  
12/07/2017 10:07, 8, 76, 2 ,1, 2, W, None, None, ,  
12/07/2017 10:06, 8, 76, 2 ,0, 2, N, None, None, ,  
12/07/2017 09:56, 6, 76, 0 ,2, 2, NE, None, None, ,  
12/07/2017 09:52, 6, 77, 1 ,1, 2, NE, None, None, ,  
12/07/2017 09:46, 7, 78, 1 ,1, 2, N, None, None, ,  
12/07/2017 09:37, 5, 79, 0 ,0, 1, SW, None, None, ,  
12/07/2017 09:36, 6, 79, 1 ,0, 1, W, None, None, ,  
12/07/2017 09:26, 6, 81, 2 ,0, 1, NW, None, None, ,  
12/07/2017 09:22, 5, 82, 1 ,0, 1, NW, None, None, ,  
12/07/2017 09:16, 5, 81, 0 ,0, 1, NE, None, None, ,  
12/07/2017 09:07, 3, 82, -1 ,0, 1, E, None, None, ,  
12/07/2017 09:06, 3, 82, -1 ,0, 1, E, None, None, ,  
12/07/2017 08:56, 1, 81, -3 ,0, 0, S, None, None, ,  
12/07/2017 08:52, 1, 81, -4 ,0, 1, SW, None, None, ,  
12/07/2017 08:46, 0, 81, -5 ,1, 2, S, None, None, ,  
12/07/2017 08:37, 0, 81, -4 ,1, 2, S, None, None, ,  
12/07/2017 08:36, 0, 81, -4 ,1, 2, S, None, None, ,  
12/07/2017 08:26, 0, 81, -4 ,1, 2, S, None, None, ,  
12/07/2017 08:22, 0, 80, -5 ,1, 2, SW, None, None, ,  
12/07/2017 08:16, 0, 80, -5 ,0, 1, SW, None, None, ,  
12/07/2017 08:07, 0, 80, -5 ,0, 1, E, None, None, ,  
12/07/2017 08:06, -1, 80, -5 ,1, 2, E, None, None, ,  
12/07/2017 07:56, 0, 81, -5 ,0, 2, NE, None, None, ,  
12/07/2017 07:52, 0, 81, -5 ,1, 2, NE, None, None, ,  
12/07/2017 07:46, -1, 80, -5 ,1, 2, NE, None, None, ,  
12/07/2017 07:37, -1, 80, -6 ,1, 4, NE, None, None, ,  
12/07/2017 07:36, -1, 80, -6 ,1, 4, E, None, None, ,  
12/07/2017 07:26, 2, 82, -2 ,0, 2, N, None, None, ,  
12/07/2017 07:22, 2, 82, -2 ,1, 2, NE, None, None, ,  
12/07/2017 07:16, 2, 82, -2 ,1, 1, NE, None, None, ,  
12/07/2017 07:07, 1, 82, -3 ,0, 1, E, None, None, ,  
12/07/2017 07:06, 1, 82, -3 ,0, 1, SE, None, None, ,  
12/07/2017 06:55, 1, 81, -3 ,1, 1, S, None, None, ,  
12/07/2017 06:52, 2, 82, -3 ,0, 1, SW, None, None, ,  
12/07/2017 06:45, 2, 82, -2 ,0, 1, SW, None, None, ,  
12/07/2017 06:37, 2, 83, -2 ,0, 2, W, None, None, ,  
12/07/2017 06:35, 2, 82, -2 ,0, 2, NW, None, None, ,  
12/07/2017 06:25, 1, 83, -3 ,0, 0, NW, None, None, ,  
12/07/2017 06:22, 1, 83, -3 ,0, 0, NW, None, None, ,  
12/07/2017 06:15, 1, 83, -3 ,0, 2, NW, None, None, ,  
12/07/2017 06:07, 1, 83, -3 ,1, 2, W, None, None, ,  
12/07/2017 06:05, 1, 83, -3 ,1, 2, W, None, None, ,  
12/07/2017 05:55, 2, 83, -2 ,0, 1, N, None, None, ,  
12/07/2017 05:52, 2, 83, -2 ,0, 1, NE, None, None, ,  
12/07/2017 05:45, 2, 83, -2 ,0, 2, NE, None, None, ,  
12/07/2017 05:37, 2, 83, -2 ,2, 4, N, None, None, ,  
12/07/2017 05:35, 3, 83, -1 ,3, 4, NE, None, None, ,  
12/07/2017 05:25, 2, 83, -1 ,1, 1, N, None, None, ,  
12/07/2017 05:22, 2, 84, -1 ,0, 1, SE, None, None, ,  
12/07/2017 05:15, 2, 83, -2 ,0, 2, NW, None, None, ,  
12/07/2017 05:07, 3, 84, -1 ,0, 1, W, None, None, ,  
12/07/2017 05:05, 3, 84, -1 ,0, 1, W, None, None, ,  
12/07/2017 04:55, 3, 84, 0 ,0, 2, NW, None, None, ,  
12/07/2017 04:52, 3, 83, -1 ,1, 2, NW, None, None, ,  
12/07/2017 04:45, 3, 84, 0 ,0, 0, NE, None, None, ,  
12/07/2017 04:37, 4, 84, 0 ,0, 0, E, None, None, ,  
12/07/2017 04:35, 3, 84, 0 ,0, 0, E, None, None, ,  
12/07/2017 04:25, 3, 83, -1 ,0, 3, E, None, None, ,  
12/07/2017 04:22, 4, 84, 0 ,1, 3, W, None, None, ,  
12/07/2017 04:15, 4, 83, 0 ,2, 2, W, None, None, ,  
12/07/2017 04:07, 3, 83, 0 ,1, 2, NW, None, None, ,  
12/07/2017 04:05, 3, 83, -1 ,1, 2, NW, None, None, ,  
12/07/2017 03:55, 4, 83, 1 ,1, 1, NE, None, None, ,  
12/07/2017 03:52, 4, 83, 1 ,0, 1, NE, None, None, ,  
12/07/2017 03:45, 4, 83, 0 ,1, 2, NE, None, None, ,  
12/07/2017 03:37, 5, 83, 1 ,1, 2, NE, None, None, ,  
12/07/2017 03:34, 5, 83, 1 ,1, 1, NE, None, None, ,  
12/07/2017 03:24, 5, 83, 1 ,0, 2, NW, None, None, ,  
12/07/2017 03:22, 5, 83, 1 ,1, 2, W, None, None, ,  
12/07/2017 03:14, 5, 83, 1 ,2, 2, NE, None, None, ,  
12/07/2017 03:07, 4, 82, 0 ,1, 3, NE, None, None, ,  
12/07/2017 03:04, 5, 82, 1 ,0, 3, NW, None, None, ,  
12/07/2017 02:54, 6, 83, 2 ,0, 4, NW, None, None, ,  
12/07/2017 02:52, 5, 83, 1 ,1, 4, SW, None, None, ,  
12/07/2017 02:44, 5, 82, 1 ,1, 2, S, None, None, ,  
12/07/2017 02:37, 7, 82, 3 ,1, 3, S, None, None, ,  
12/07/2017 02:34, 8, 83, 4 ,2, 3, S, None, None, ,  
12/07/2017 02:24, 6, 83, 2 ,1, 3, S, None, None, ,  
12/07/2017 02:22, 6, 82, 2 ,1, 4, N, None, None, ,  
12/07/2017 02:14, 6, 81, 2 ,2, 4, NW, None, None, ,  
12/07/2017 02:07, 7, 82, 3 ,0, 2, NE, None, None, ,  
12/07/2017 02:04, 8, 82, 3 ,1, 2, E, None, None, ,  
12/07/2017 01:54, 7, 82, 2 ,1, 1, NW, None, None, ,  
12/07/2017 01:52, 7, 81, 2 ,0, 1, NW, None, None, ,  
12/07/2017 01:44, 7, 81, 3 ,0, 2, NW, None, None, ,  
12/07/2017 01:37, 8, 81, 3 ,2, 4, W, None, None, ,  
12/07/2017 01:34, 8, 81, 4 ,3, 4, N, None, None, ,  
12/07/2017 01:24, 10, 82, 6 ,1, 2, N, None, None, ,  
12/07/2017 01:22, 10, 82, 5 ,0, 2, N, None, None, ,  
12/07/2017 01:14, 10, 82, 5 ,1, 1, NE, None, None, ,  
12/07/2017 01:07, 9, 82, 5 ,0, 1, N, None, None, ,  
12/07/2017 01:04, 10, 82, 5 ,0, 1, SW, None, None, ,  
12/07/2017 00:54, 9, 82, 5 ,0, 1, W, None, None, ,  
12/07/2017 00:52, 9, 82, 5 ,1, 1, W, None, None, ,  
12/07/2017 00:44, 9, 82, 4 ,0, 2, S, None, None, ,  
12/07/2017 00:37, 9, 82, 5 ,1, 1, W, None, None, ,  
12/07/2017 00:34, 9, 83, 5 ,1, 2, W, None, None, ,  
12/07/2017 00:24, 9, 83, 5 ,2, 2, NE, None, None, ,  
12/07/2017 00:22, 9, 83, 5 ,1, 2, NE, None, None, ,  
12/07/2017 00:13, 8, 82, 4 ,1, 1, NW, None, None, ,  
12/07/2017 00:07, 9, 83, 5 ,1, 1, NE, None, None, ,  
12/07/2017 00:03, 9, 83, 5 ,0, 2, E, None, None, ,  
12/06/2017 23:53, 9, 83, 5 ,1, 3, E, None, None, ,  
12/06/2017 23:52, 9, 83, 5 ,1, 3, E, None, None, ,  
12/06/2017 23:43, 9, 83, 5 ,1, 2, SW, None, None, ,  
12/06/2017 23:37, 8, 84, 4 ,1, 4, SW, None, None, ,  
12/06/2017 23:33, 8, 84, 4 ,0, 4, S, None, None, ,  
12/06/2017 23:23, 6, 84, 2 ,3, 5, NE, None, None, ,  
12/06/2017 23:22, 6, 84, 2 ,2, 5, NE, None, None, ,  
12/06/2017 23:13, 5, 83, 2 ,2, 5, S, None, None, ,  
12/06/2017 23:07, 5, 83, 2 ,4, 4, S, None, None, ,  
12/06/2017 23:03, 5, 83, 1 ,2, 4, SW, None, None, ,  
12/06/2017 22:53, 6, 83, 2 ,2, 3, SE, None, None, ,  
12/06/2017 22:52, 6, 83, 2 ,2, 3, SE, None, None, ,  
12/06/2017 22:43, 7, 84, 3 ,3, 4, S, None, None, ,  
12/06/2017 22:37, 6, 83, 2 ,3, 4, SW, None, None, ,  
12/06/2017 22:33, 6, 83, 2 ,3, 4, S, None, None, ,  
12/06/2017 22:23, 8, 83, 4 ,2, 4, SW, None, None, ,  
12/06/2017 22:22, 8, 83, 4 ,2, 4, SW, None, None, ,  
12/06/2017 22:13, 8, 82, 4 ,0, 2, N, None, None, ,  
12/06/2017 22:07, 8, 82, 4 ,0, 2, E, None, None, ,  
12/06/2017 22:03, 9, 83, 4 ,1, 3, N, None, None, ,  
12/06/2017 21:53, 8, 81, 3 ,2, 3, N, None, None, ,  
12/06/2017 21:52, 8, 81, 4 ,2, 3, NW, None, None, ,  
12/06/2017 21:43, 9, 81, 4 ,1, 5, SW, None, None, ,  
12/06/2017 21:37, 9, 81, 5 ,4, 5, SW, None, None, ,  
12/06/2017 21:33, 9, 81, 4 ,2, 3, S, None, None, ,  
12/06/2017 21:23, 11, 80, 6 ,0, 4, W, None, None, ,  
12/06/2017 21:22, 11, 80, 6 ,1, 4, W, None, None, ,  
12/06/2017 21:13, 11, 81, 6 ,4, 7, SE, None, None, ,  
12/06/2017 21:07, 10, 81, 5 ,6, 9, S, None, None, ,  
12/06/2017 21:03, 10, 80, 5 ,7, 9, S, None, None, ,  
12/06/2017 20:53, 11, 81, 7 ,4, 9, SE, None, None, ,  
12/06/2017 20:52, 11, 81, 6 ,4, 9, SE, None, None, ,  
12/06/2017 20:42, 12, 81, 7 ,9, 10, S, None, None, ,  
12/06/2017 20:37, 11, 80, 6 ,7, 9, SW, None, None, ,  
12/06/2017 20:32, 11, 78, 6 ,8, 9, S, None, None, ,  
12/06/2017 20:22, 12, 77, 7 ,6, 7, S, None, None, ,  
12/06/2017 20:22, 12, 77, 7 ,6, 7, S, None, None, ,  
12/06/2017 20:12, 14, 79, 8 ,7, 8, S, None, None, ,  
12/06/2017 20:07, 12, 78, 7 ,6, 9, S, None, None, ,  
12/06/2017 20:02, 13, 80, 8 ,7, 9, S, None, None, ,  
12/06/2017 19:52, 12, 77, 6 ,9, 10, S, None, None, ,  
12/06/2017 19:52, 12, 77, 6 ,9, 10, S, None, None, ,  
12/06/2017 19:42, 17, 74, 10 ,9, 10, S, None, None, ,  
12/06/2017 19:37, 16, 73, 9 ,8, 9, S, None, None, ,  
12/06/2017 19:32, 18, 72, 11 ,9, 9, S, None, None, ,  
12/06/2017 19:22, 18, 72, 11 ,9, 9, S, None, None, ,  
12/06/2017 19:22, 18, 72, 11 ,9, 9, S, None, None, ,  
12/06/2017 19:12, 19, 75, 12 ,9, 10, S, None, None, ,  
12/06/2017 19:07, 18, 74, 11 ,9, 11, S, None, None, ,  
12/06/2017 19:02, 19, 75, 12 ,10, 11, S, None, None, ,  
12/06/2017 18:52, 20, 72, 13 ,9, 10, S, None, None, ,  
12/06/2017 18:52, 20, 72, 13 ,9, 10, S, None, None, ,  
12/06/2017 18:42, 20, 69, 12 ,6, 7, S, None, None, ,  
12/06/2017 18:37, 21, 67, 12 ,7, 8, S, None, None, ,  
12/06/2017 18:32, 21, 67, 12 ,7, 9, S, None, None, ,  
12/06/2017 18:22, 22, 66, 13 ,9, 9, S, None, None, ,  
12/06/2017 18:22, 22, 66, 13 ,9, 9, S, None, None, ,  
Change End Date:

Copyright © 1998-2015 Vaisala, Inc.
All Rights Reserved
Send comments about the data to:
SCAN Web ® is a registered trademark of Vaisala, Inc.
SCAN Web Version 6.0